Time;durP1;ratioP1;P1;durP2;ratioP2;P2;SDS_P1;SDS_P2;PMS_P1;PMS_P2;Temp;Humidity;BMP_temperature;BMP_pressure;BME280_temperature;BME280_humidity;BME280_pressure;Samples;Min_cycle;Max_cycle;Signal;HPM_P1;HPM_P2
2021/01/27 00:02:22;;;;;;;29.17;17.73;;;;;;;0.65;100.00;100733.34;5217847;28;20041;-78
2021/01/27 00:04:52;;;;;;;25.77;16.95;;;;;;;0.59;100.00;100728.13;5220966;28;20446;-79
2021/01/27 00:07:22;;;;;;;26.67;17.15;;;;;;;0.42;100.00;100727.16;5222960;28;20108;-82
2021/01/27 00:09:52;;;;;;;26.85;16.52;;;;;;;0.51;100.00;100722.09;5222960;28;20462;-79
2021/01/27 00:12:23;;;;;;;29.45;18.45;;;;;;;0.46;100.00;100721.22;5223683;28;20021;-79
2021/01/27 00:14:54;;;;;;;36.63;19.38;;;;;;;0.52;100.00;100716.09;5222179;28;20025;-79
2021/01/27 00:17:24;;;;;;;36.22;20.23;;;;;;;0.57;100.00;100721.28;5223021;28;20133;-79
2021/01/27 00:19:54;;;;;;;32.97;20.00;;;;;;;0.64;100.00;100715.31;5222532;28;20040;-79
2021/01/27 00:22:24;;;;;;;35.85;21.52;;;;;;;0.70;100.00;100713.66;5222703;28;20499;-80
2021/01/27 00:24:55;;;;;;;38.65;22.65;;;;;;;0.71;100.00;100710.22;5221872;28;20630;-79
2021/01/27 00:27:25;;;;;;;44.35;23.60;;;;;;;0.80;100.00;100712.88;5223138;28;20028;-79
2021/01/27 00:29:55;;;;;;;42.72;23.83;;;;;;;0.88;100.00;100708.59;5223158;28;20092;-82
2021/01/27 00:32:28;;;;;;;38.72;23.08;;;;;;;0.96;100.00;100704.38;5222566;28;20079;-81
2021/01/27 00:34:58;;;;;;;42.10;24.08;;;;;;;1.07;100.00;100702.69;5229356;28;20025;-81
2021/01/27 00:37:28;;;;;;;40.65;24.48;;;;;;;1.17;100.00;100699.31;5221785;28;20025;-79
2021/01/27 00:39:58;;;;;;;47.40;25.95;;;;;;;1.23;100.00;100699.31;5220996;28;20395;-80
2021/01/27 00:42:29;;;;;;;41.92;24.52;;;;;;;1.32;100.00;100694.22;5223028;28;20379;-81
2021/01/27 00:44:59;;;;;;;41.97;24.30;;;;;;;1.36;100.00;100690.81;5221133;28;20029;-79
2021/01/27 00:47:29;;;;;;;43.90;25.65;;;;;;;1.34;100.00;100692.50;5223053;28;20033;-79
2021/01/27 00:49:59;;;;;;;44.10;25.63;;;;;;;1.36;100.00;100690.81;5222585;28;20044;-80
2021/01/27 00:52:30;;;;;;;45.53;25.10;;;;;;;1.36;100.00;100690.81;5221936;28;20020;-82
2021/01/27 00:55:00;;;;;;;41.83;25.48;;;;;;;1.38;100.00;100689.09;5222445;28;20025;-83
2021/01/27 00:57:30;;;;;;;46.40;26.38;;;;;;;1.39;100.00;100679.66;5219866;28;20035;-82
2021/01/27 01:00:01;;;;;;;44.50;25.77;;;;;;;1.37;100.00;100681.38;5221760;28;20028;-83
2021/01/27 01:02:31;;;;;;;46.45;26.05;;;;;;;1.37;100.00;100674.50;5222099;28;20035;-80
2021/01/27 01:05:02;;;;;;;43.65;25.13;;;;;;;1.37;100.00;100677.06;5220022;28;20552;-79
2021/01/27 01:07:32;;;;;;;48.50;27.23;;;;;;;1.37;100.00;100665.94;5213677;28;20060;-83
2021/01/27 01:10:05;;;;;;;48.03;27.05;;;;;;;1.43;100.00;100679.66;5218092;28;20411;-79
2021/01/27 01:12:35;;;;;;;46.55;26.67;;;;;;;1.48;100.00;100670.25;5219230;28;20021;-81
2021/01/27 01:15:06;;;;;;;46.22;26.55;;;;;;;1.52;100.00;100677.13;5221775;28;20602;-82
2021/01/27 01:17:38;;;;;;;47.45;27.25;;;;;;;1.52;100.00;100674.53;5222232;28;20090;-82
2021/01/27 01:20:14;;;;;;;42.72;26.52;;;;;;;1.59;100.00;100678.00;5221603;28;20091;-79
2021/01/27 01:22:46;;;;;;;49.08;28.35;;;;;;;1.61;100.00;100676.28;5220842;28;20064;-82
2021/01/27 01:25:18;;;;;;;45.08;26.85;;;;;;;1.68;100.00;100673.72;5224190;28;20074;-82
2021/01/27 01:27:49;;;;;;;50.95;27.73;;;;;;;1.70;100.00;100665.97;5225250;28;20063;-82
2021/01/27 01:30:37;;;;;;;49.45;28.35;;;;;;;1.74;100.00;100662.56;5225137;28;20052;-80
2021/01/27 01:33:14;;;;;;;52.08;27.30;;;;;;;1.75;100.00;100659.97;5226384;28;20430;-80
2021/01/27 01:35:45;;;;;;;47.38;26.75;;;;;;;1.84;100.00;100667.72;5226107;28;20013;-80
2021/01/27 01:38:16;;;;;;;49.38;27.60;;;;;;;1.89;100.00;100660.84;5226070;28;20021;-83
2021/01/27 01:40:59;;;;;;;46.97;26.85;;;;;;;1.89;100.00;100658.25;5226739;28;20112;-81
2021/01/27 01:43:33;;;;;;;48.47;27.58;;;;;;;1.92;100.00;100663.41;5224811;28;20060;-82
2021/01/27 01:46:12;;;;;;;49.88;28.08;;;;;;;1.96;100.00;100655.69;5220984;28;20055;-81
2021/01/27 01:48:49;;;;;;;44.80;27.17;;;;;;;2.01;100.00;100658.28;5224853;28;20051;-81
2021/01/27 01:51:27;;;;;;;48.03;28.25;;;;;;;2.03;100.00;100657.41;5224705;28;20692;-81
2021/01/27 01:54:05;;;;;;;44.47;28.25;;;;;;;2.09;100.00;100661.69;5223847;28;20490;-81
2021/01/27 01:56:38;;;;;;;43.10;26.13;;;;;;;2.10;100.00;100661.72;5224508;28;20041;-80
2021/01/27 01:59:11;;;;;;;47.20;26.65;;;;;;;2.05;100.00;100655.72;5225191;28;20100;-81
2021/01/27 02:01:44;;;;;;;49.92;27.73;;;;;;;1.95;100.00;100653.97;5224588;28;20063;-80
2021/01/27 02:04:15;;;;;;;41.60;25.92;;;;;;;2.02;100.00;100649.69;5225726;28;20422;-80
2021/01/27 02:06:45;;;;;;;41.28;26.33;;;;;;;1.92;100.00;100650.53;5224387;28;20028;-83
2021/01/27 02:09:15;;;;;;;39.95;25.65;;;;;;;1.91;100.00;100647.13;5224851;28;20037;-80
2021/01/27 02:12:23;;;;;;;42.60;26.10;;;;;;;1.91;100.00;100647.13;5224815;28;20031;-82
2021/01/27 02:15:22;;;;;;;47.40;27.60;;;;;;;1.85;100.00;100647.09;5227236;28;20422;-82
2021/01/27 02:18:03;;;;;;;44.75;27.17;;;;;;;1.95;100.00;100655.69;5218632;28;20064;-79
2021/01/27 02:21:04;;;;;;;43.92;26.40;;;;;;;1.94;100.00;100651.38;5224981;28;20411;-82
2021/01/27 02:23:34;;;;;;;44.97;27.23;;;;;;;1.94;100.00;100647.13;5218020;28;20033;-83
2021/01/27 02:26:29;;;;;;;44.33;28.10;;;;;;;1.89;100.00;100638.53;5224727;28;20032;-81
2021/01/27 02:29:28;;;;;;;45.80;27.83;;;;;;;1.86;100.00;100637.66;5224360;28;20473;-79
2021/01/27 02:32:24;;;;;;;51.88;29.02;;;;;;;1.85;100.00;100646.25;5224774;28;20029;-79
2021/01/27 02:35:04;;;;;;;;;;;;;;;1.85;100.00;100643.69;5224123;28;20025;-79
2021/01/27 02:37:59;;;;;;;46.42;27.60;;;;;;;1.86;100.00;100637.66;5218775;28;19913;-79
2021/01/27 02:40:55;;;;;;;46.35;28.30;;;;;;;1.83;100.00;100642.81;5223544;28;20021;-80
2021/01/27 02:43:32;;;;;;;52.20;30.08;;;;;;;1.83;100.00;100642.81;5223314;28;20094;-81
2021/01/27 02:46:30;;;;;;;47.17;28.63;;;;;;;1.93;100.00;100626.47;5223820;28;20625;-79
2021/01/27 02:49:09;;;;;;;53.28;31.05;;;;;;;1.89;100.00;100628.22;5224336;28;20029;-82
2021/01/27 02:51:46;;;;;;;48.17;31.27;;;;;;;1.89;100.00;100632.50;5223484;28;20053;-79
2021/01/27 02:54:24;;;;;;;47.70;30.80;;;;;;;1.86;100.00;100625.63;5217824;28;20112;-80
2021/01/27 02:57:17;;;;;;;54.40;33.17;;;;;;;1.88;100.00;100628.22;5224514;28;20025;-79
2021/01/27 03:00:05;;;;;;;50.13;30.48;;;;;;;1.88;100.00;100623.06;5223791;28;20124;-79
2021/01/27 03:02:43;;;;;;;53.08;32.33;;;;;;;1.89;100.00;100622.19;5223283;28;20029;-80
2021/01/27 03:05:16;;;;;;;51.83;31.33;;;;;;;1.89;100.00;100622.19;5223288;28;20033;-79
2021/01/27 03:07:56;;;;;;;54.08;31.75;;;;;;;1.95;100.00;100624.75;5221118;28;20652;-79
2021/01/27 03:10:34;;;;;;;53.63;32.28;;;;;;;1.84;100.00;100618.78;5218460;28;20036;-79
2021/01/27 03:13:04;;;;;;;53.33;32.00;;;;;;;1.95;100.00;100617.91;5222592;28;20021;-81
2021/01/27 03:15:37;;;;;;;55.38;33.72;;;;;;;1.84;100.00;100616.19;5223162;28;20027;-80
2021/01/27 03:18:13;;;;;;;56.95;31.90;;;;;;;1.86;100.00;100602.44;5223262;28;20021;-79
2021/01/27 03:20:46;;;;;;;56.30;32.45;;;;;;;1.74;100.00;100601.59;5222974;28;20074;-82
2021/01/27 03:23:32;;;;;;;50.25;30.20;;;;;;;1.77;100.00;100605.91;5220062;28;20033;-79
2021/01/27 03:26:26;;;;;;;54.92;33.15;;;;;;;1.65;100.00;100608.44;5220818;28;20067;-81
2021/01/27 03:29:01;;;;;;;52.28;33.30;;;;;;;1.66;100.00;100608.47;5223009;28;20021;-79
2021/01/27 03:31:31;;;;;;;51.28;32.58;;;;;;;1.64;100.00;100607.63;5222865;28;20029;-82
2021/01/27 03:34:17;;;;;;;47.58;31.15;;;;;;;1.66;100.00;100605.91;5225287;28;20029;-83
2021/01/27 03:36:50;;;;;;;;;;;;;;;1.69;100.00;100602.44;5222076;28;20099;-83
2021/01/27 03:39:24;;;;;;;56.55;32.78;;;;;;;1.52;100.00;100602.44;5226483;28;19909;-82
2021/01/27 03:41:59;;;;;;;54.72;33.15;;;;;;;1.50;100.00;100605.88;5221650;28;20120;-80
2021/01/27 03:44:38;;;;;;;56.78;32.72;;;;;;;1.47;100.00;100598.16;5220529;28;20081;-79
2021/01/27 03:47:16;;;;;;;56.42;32.58;;;;;;;1.46;100.00;100605.03;5221486;28;20036;-84
2021/01/27 03:49:59;;;;;;;54.90;32.30;;;;;;;1.52;100.00;100599.88;5222164;28;20024;-80
2021/01/27 03:52:36;;;;;;;52.00;31.65;;;;;;;1.46;100.00;100596.44;5222704;28;20487;-82
2021/01/27 03:55:23;;;;;;;47.28;30.38;;;;;;;1.48;100.00;100593.00;5222389;28;20033;-81
2021/01/27 03:58:17;;;;;;;53.08;31.25;;;;;;;1.42;100.00;100599.88;5226806;28;20590;-81
2021/01/27 04:00:49;;;;;;;53.08;30.77;;;;;;;1.45;100.00;100592.13;5222501;28;20448;-79
2021/01/27 04:03:21;;;;;;;48.85;30.15;;;;;;;1.46;100.00;100580.97;5221272;28;20039;-81
2021/01/27 04:05:52;;;;;;;47.22;29.83;;;;;;;1.31;100.00;100578.38;5223376;28;20063;-82
2021/01/27 04:08:22;;;;;;;51.95;31.00;;;;;;;1.26;100.00;100578.38;5222176;28;20053;-80
2021/01/27 04:10:52;;;;;;;46.00;28.40;;;;;;;1.38;100.00;100585.28;5222183;28;20028;-80
2021/01/27 04:13:22;;;;;;;50.50;30.50;;;;;;;1.21;100.00;100577.50;5222220;28;20028;-79
2021/01/27 04:15:53;;;;;;;46.55;29.85;;;;;;;1.18;100.00;100577.50;5220834;28;20117;-79
2021/01/27 04:18:24;;;;;;;46.75;30.10;;;;;;;1.20;100.00;100578.38;5222177;28;20032;-81
2021/01/27 04:20:55;;;;;;;47.47;30.13;;;;;;;1.31;100.00;100566.38;5222320;28;20021;-79
2021/01/27 04:23:25;;;;;;;49.60;28.33;;;;;;;1.36;100.00;100566.38;5220445;28;20025;-79
2021/01/27 04:25:55;;;;;;;45.78;27.85;;;;;;;1.21;100.00;100569.78;5222425;28;20037;-82
2021/01/27 04:28:25;;;;;;;46.42;28.80;;;;;;;1.05;100.00;100569.78;5221934;28;20033;-82
2021/01/27 04:30:56;;;;;;;50.47;29.98;;;;;;;0.96;100.00;100570.63;5222318;28;20032;-80
2021/01/27 04:33:26;;;;;;;51.10;30.52;;;;;;;0.92;100.00;100561.16;5225608;28;20103;-80
2021/01/27 04:35:56;;;;;;;54.85;31.75;;;;;;;0.82;100.00;100556.84;5221932;28;20036;-81
2021/01/27 04:38:27;;;;;;;48.47;30.00;;;;;;;0.80;100.00;100553.41;5221268;28;20057;-80
2021/01/27 04:40:58;;;;;;;52.72;30.25;;;;;;;0.87;100.00;100551.72;5222475;28;20013;-79
2021/01/27 04:43:35;;;;;;;48.97;28.45;;;;;;;1.04;100.00;100542.34;5217160;28;20029;-81
2021/01/27 04:46:29;;;;;;;49.38;29.08;;;;;;;0.95;100.00;100543.19;5221257;28;20431;-79
2021/01/27 04:49:23;;;;;;;50.28;28.73;;;;;;;0.93;100.00;100534.56;5229672;28;20065;-79
2021/01/27 04:52:01;;;;;;;46.10;27.23;;;;;;;0.94;100.00;100531.16;5221655;28;20025;-80
2021/01/27 04:55:15;;;;;;;47.20;29.20;;;;;;;0.98;100.00;100537.16;5222279;28;20047;-80
2021/01/27 04:58:01;;;;;;;48.45;27.63;;;;;;;0.86;100.00;100532.00;5222188;28;20025;-80
2021/01/27 05:00:44;;;;;;;46.40;27.58;;;;;;;0.86;100.00;100534.59;5223207;28;20071;-80
2021/01/27 05:03:48;;;;;;;48.35;27.90;;;;;;;0.89;100.00;100538.00;5230991;28;20037;-82
2021/01/27 05:06:26;;;;;;;45.38;28.23;;;;;;;0.93;100.00;100532.00;5226197;28;20380;-85
2021/01/27 05:09:12;;;;;;;51.78;29.85;;;;;;;0.93;100.00;100529.41;5226014;28;20056;-79
2021/01/27 05:11:44;;;;;;;52.20;29.08;;;;;;;1.02;100.00;100531.16;5225734;28;20067;-79
2021/01/27 05:14:17;;;;;;;48.25;27.77;;;;;;;1.09;100.00;100526.03;5220563;28;20048;-83
2021/01/27 05:16:50;;;;;;;47.65;28.70;;;;;;;1.09;100.00;100528.59;5225610;28;20025;-84
2021/01/27 05:19:20;;;;;;;44.58;26.95;;;;;;;1.12;100.00;100528.63;5225163;28;20029;-79
2021/01/27 05:21:57;;;;;;;50.58;28.25;;;;;;;1.13;100.00;100521.75;5225716;28;20031;-79
2021/01/27 05:24:27;;;;;;;46.50;27.25;;;;;;;1.22;100.00;100522.63;5225230;28;20054;-81
2021/01/27 05:27:04;;;;;;;45.42;27.00;;;;;;;1.29;100.00;100521.78;5224893;28;20499;-80
2021/01/27 05:29:43;;;;;;;44.75;26.00;;;;;;;1.29;100.00;100508.91;5224257;28;20087;-82
2021/01/27 05:32:16;;;;;;;43.90;26.88;;;;;;;1.33;100.00;100522.63;5224961;28;20048;-81
2021/01/27 05:34:52;;;;;;;38.67;23.85;;;;;;;1.40;100.00;100522.63;5224818;28;20067;-83
2021/01/27 05:37:28;;;;;;;42.22;24.70;;;;;;;1.44;100.00;100533.78;5224587;28;20028;-82
2021/01/27 05:40:20;;;;;;;44.85;26.00;;;;;;;1.41;100.00;100523.50;5224933;28;20479;-79
2021/01/27 05:42:51;;;;;;;43.50;25.10;;;;;;;1.50;100.00;100524.34;5225066;28;20029;-81
2021/01/27 05:45:36;;;;;;;41.65;24.98;;;;;;;1.47;100.00;100518.34;5224066;28;20529;-81
2021/01/27 05:48:34;;;;;;;39.88;24.55;;;;;;;1.58;100.00;100522.63;5224992;28;20041;-80
2021/01/27 05:51:05;;;;;;;41.58;24.40;;;;;;;1.60;100.00;100517.47;5224518;28;20032;-80
2021/01/27 05:53:35;;;;;;;41.07;23.57;;;;;;;1.68;100.00;100523.47;5224182;28;20661;-80
2021/01/27 05:56:17;;;;;;;38.90;24.40;;;;;;;1.72;100.00;100522.63;5224814;28;20271;-80
2021/01/27 05:59:07;;;;;;;34.80;22.52;;;;;;;1.73;100.00;100532.91;5224084;28;20494;-79
2021/01/27 06:01:42;;;;;;;39.63;22.42;;;;;;;1.86;100.00;100524.31;5223673;28;20032;-79
2021/01/27 06:04:12;;;;;;;39.33;21.77;;;;;;;1.82;100.00;100523.44;5223776;28;20044;-80
2021/01/27 06:06:45;;;;;;;34.73;21.10;;;;;;;1.88;100.00;100520.00;5218364;28;20087;-80
2021/01/27 06:09:31;;;;;;;34.42;21.33;;;;;;;1.65;100.00;100513.16;5223584;28;20286;-82
2021/01/27 06:12:05;;;;;;;34.08;20.83;;;;;;;1.71;100.00;100510.63;5224457;28;20067;-83
2021/01/27 06:14:36;;;;;;;33.42;19.92;;;;;;;1.68;100.00;100520.88;5224397;28;20079;-80
2021/01/27 06:17:26;;;;;;;30.00;19.35;;;;;;;1.70;100.00;100514.00;5224328;28;20033;-81
2021/01/27 06:20:01;;;;;;;31.75;19.65;;;;;;;1.83;100.00;100514.03;5224811;28;20074;-79
2021/01/27 06:22:51;;;;;;;26.60;18.23;;;;;;;1.93;100.00;100514.00;5219598;28;20037;-85
2021/01/27 06:25:43;;;;;;;29.33;18.50;;;;;;;1.94;100.00;100512.25;5224628;28;20029;-79
2021/01/27 06:28:37;;;;;;;31.33;18.48;;;;;;;1.89;100.00;100514.00;5224499;28;20068;-79
2021/01/27 06:31:19;;;;;;;30.10;18.40;;;;;;;1.77;100.00;100514.00;5224801;28;20060;-80
2021/01/27 06:34:00;;;;;;;30.55;19.25;;;;;;;1.82;100.00;100512.31;5222574;28;20116;-81
2021/01/27 06:36:54;;;;;;;28.58;18.75;;;;;;;1.82;100.00;100508.00;5224788;28;20029;-83
2021/01/27 06:39:51;;;;;;;35.35;19.65;;;;;;;1.90;100.00;100515.72;5225230;28;20028;-82
2021/01/27 06:42:50;;;;;;;31.25;19.20;;;;;;;1.85;100.00;100507.97;5224778;28;20031;-81
2021/01/27 06:45:54;;;;;;;29.95;19.55;;;;;;;1.83;100.00;100511.44;5221090;28;20032;-81
2021/01/27 06:48:43;;;;;;;30.10;19.02;;;;;;;1.88;100.00;100507.13;5223125;28;20020;-81
2021/01/27 06:51:50;;;;;;;28.55;18.13;;;;;;;1.87;100.00;100500.25;5223758;28;20383;-82
2021/01/27 06:54:38;;;;;;;29.15;18.15;;;;;;;1.96;100.00;100495.09;5217826;28;20423;-79
2021/01/27 06:57:17;;;;;;;29.38;18.92;;;;;;;1.92;100.00;100498.53;5224613;28;20033;-80
2021/01/27 06:59:54;;;;;;;28.00;18.50;;;;;;;2.01;100.00;100499.34;5222166;28;20483;-79
2021/01/27 07:02:42;;;;;;;28.90;18.52;;;;;;;1.81;100.00;100493.41;5223642;28;20095;-78
2021/01/27 07:05:24;;;;;;;27.30;17.48;;;;;;;1.96;100.00;100497.69;5221827;28;20082;-79
2021/01/27 07:08:08;;;;;;;27.02;17.42;;;;;;;1.74;100.00;100501.13;5222771;28;20171;-79
2021/01/27 07:11:05;;;;;;;28.05;18.20;;;;;;;1.74;100.00;100492.56;5223454;28;20021;-79
2021/01/27 07:14:00;;;;;;;29.35;17.52;;;;;;;1.78;100.00;100506.28;5221350;28;20020;-80
2021/01/27 07:16:47;;;;;;;25.35;17.20;;;;;;;1.85;100.00;100492.53;5225091;28;20111;-79
2021/01/27 07:19:36;;;;;;;25.17;16.20;;;;;;;1.83;100.00;100501.13;5217380;28;20031;-81
2021/01/27 07:22:21;;;;;;;24.48;16.60;;;;;;;1.98;100.00;100498.53;5220796;28;20041;-79
2021/01/27 07:25:11;;;;;;;26.35;16.20;;;;;;;1.93;100.00;100495.97;5220718;28;20586;-79
2021/01/27 07:27:49;;;;;;;24.70;16.50;;;;;;;1.93;100.00;100495.97;5223274;28;20041;-79
2021/01/27 07:30:34;;;;;;;25.67;16.63;;;;;;;2.06;100.00;100495.06;5222951;28;20100;-80
2021/01/27 07:33:11;;;;;;;24.30;16.08;;;;;;;1.89;100.00;100483.97;5219746;28;20099;-79
2021/01/27 07:35:53;;;;;;;24.58;15.80;;;;;;;1.95;100.00;100488.22;5225370;28;20037;-79
2021/01/27 07:38:30;;;;;;;23.83;14.88;;;;;;;1.99;100.00;100487.38;5220249;28;20029;-82
2021/01/27 07:41:05;;;;;;;23.60;14.73;;;;;;;1.94;100.00;100486.50;5222238;28;20547;-81
2021/01/27 07:43:58;;;;;;;;;;;;;;;2.04;100.00;100483.91;5223262;28;20104;-80
2021/01/27 07:47:08;;;;;;;24.00;14.15;;;;;;;1.81;100.00;100484.84;5220345;28;19912;-82
2021/01/27 07:49:48;;;;;;;22.92;14.63;;;;;;;1.54;100.00;100474.56;5221407;28;20041;-82
2021/01/27 07:52:27;;;;;;;23.27;15.75;;;;;;;1.67;100.00;100477.97;5222561;28;20551;-82
2021/01/27 07:55:19;;;;;;;19.95;13.90;;;;;;;1.79;100.00;100481.41;5222024;28;20036;-79
2021/01/27 07:58:10;;;;;;;22.42;14.35;;;;;;;1.77;100.00;100471.97;5222978;28;20120;-80
2021/01/27 08:00:53;;;;;;;22.90;13.98;;;;;;;1.83;100.00;100475.38;5221144;28;20037;-78
2021/01/27 08:03:40;;;;;;;25.63;13.63;;;;;;;2.11;100.00;100474.41;5221310;28;20103;-81
2021/01/27 08:06:15;;;;;;;21.73;12.98;;;;;;;2.08;100.00;100466.72;5219639;28;20024;-81
2021/01/27 08:08:52;;;;;;;21.15;13.27;;;;;;;2.09;100.00;100465.84;5221046;28;20035;-80
2021/01/27 08:11:39;;;;;;;18.42;11.57;;;;;;;2.33;100.00;100465.75;5222588;28;20629;-79
2021/01/27 08:14:15;;;;;;;20.73;12.00;;;;;;;2.16;99.99;100457.25;5222835;28;20032;-80
2021/01/27 08:16:47;;;;;;;20.20;11.77;;;;;;;2.23;99.94;100454.63;5221350;28;20149;-79
2021/01/27 08:19:22;;;;;;;21.63;11.88;;;;;;;2.25;99.77;100457.19;5221210;28;20024;-81
2021/01/27 08:21:54;;;;;;;;;;;;;;;2.30;99.34;100458.03;5222535;28;20049;-80
2021/01/27 08:24:51;;;;;;;18.35;10.82;;;;;;;2.36;99.13;100451.13;5221511;28;19917;-79
2021/01/27 08:27:30;;;;;;;16.05;10.35;;;;;;;2.33;98.17;100445.13;5222420;28;20171;-82
2021/01/27 08:30:19;;;;;;;18.73;10.50;;;;;;;2.33;97.91;100442.56;5222600;28;20025;-79
2021/01/27 08:33:31;;;;;;;17.17;9.73;;;;;;;2.67;97.02;100446.66;5222581;28;20016;-79
2021/01/27 08:36:04;;;;;;;15.23;8.63;;;;;;;2.75;95.17;100442.31;5223884;28;20021;-80
2021/01/27 08:38:37;;;;;;;16.48;8.60;;;;;;;2.56;95.46;100444.16;5225523;28;20032;-81
2021/01/27 08:41:12;;;;;;;11.40;8.25;;;;;;;2.76;95.09;100444.88;5226594;28;20456;-79
2021/01/27 08:43:53;;;;;;;14.13;8.13;;;;;;;2.96;94.83;100436.97;5224648;28;20692;-79
2021/01/27 08:46:27;;;;;;;12.52;7.97;;;;;;;2.87;94.15;100439.66;5225648;28;20017;-79
2021/01/27 08:48:58;;;;;;;12.13;8.05;;;;;;;3.05;94.02;100429.19;5226156;28;20029;-80
2021/01/27 08:51:50;;;;;;;10.65;7.13;;;;;;;3.22;94.74;100422.16;5227462;28;20028;-79
2021/01/27 08:54:28;;;;;;;13.52;8.13;;;;;;;3.03;93.59;100420.59;5221006;28;20021;-81
2021/01/27 08:57:19;;;;;;;11.52;8.00;;;;;;;2.93;94.75;100422.41;5226726;28;20364;-81
2021/01/27 09:00:19;;;;;;;15.30;9.15;;;;;;;2.83;95.84;100412.16;5225333;28;20116;-80
2021/01/27 09:02:51;;;;;;;14.90;9.10;;;;;;;2.77;96.04;100407.91;5226022;28;20060;-80
2021/01/27 09:05:36;;;;;;;15.45;10.23;;;;;;;3.14;94.81;100404.16;5225065;28;20025;-84
2021/01/27 09:08:09;;;;;;;21.23;11.50;;;;;;;3.24;94.17;100410.09;5225968;28;20068;-81
2021/01/27 09:10:42;;;;;;;15.95;10.02;;;;;;;3.22;94.62;100401.50;5226209;28;20142;-80
2021/01/27 09:13:28;;;;;;;11.65;7.70;;;;;;;3.41;92.36;100408.22;5225361;28;20479;-82
2021/01/27 09:16:19;;;;;;;;;;;;;;;3.28;92.41;100411.78;5226655;28;20029;-80
2021/01/27 09:18:55;;;;;;;11.93;7.10;;;;;;;3.22;92.47;100407.50;5226068;28;19924;-81
2021/01/27 09:21:26;;;;;;;11.38;6.60;;;;;;;3.25;91.77;100401.47;5226272;28;20025;-81
2021/01/27 09:24:04;;;;;;;11.35;6.90;;;;;;;3.08;92.67;100404.22;5230612;28;20128;-80
2021/01/27 09:26:37;;;;;;;10.20;6.72;;;;;;;3.21;92.74;100394.63;5226158;28;20040;-79
2021/01/27 09:29:32;;;;;;;11.15;7.05;;;;;;;3.10;92.82;100397.31;5226200;28;20079;-82
2021/01/27 09:32:12;;;;;;;13.50;7.00;;;;;;;3.23;92.98;100400.63;5225152;28;20017;-80
2021/01/27 09:34:44;;;;;;;12.35;6.95;;;;;;;3.35;93.98;100392.78;5224770;28;20025;-79
2021/01/27 09:37:25;;;;;;;12.15;7.00;;;;;;;3.43;94.55;100388.38;5224154;28;20029;-81
2021/01/27 09:40:18;;;;;;;10.15;6.60;;;;;;;3.48;93.93;100395.22;5225319;28;20020;-80
2021/01/27 09:42:48;;;;;;;12.30;6.95;;;;;;;3.68;94.40;100391.56;5223479;28;20025;-80
2021/01/27 09:45:26;;;;;;;11.60;6.75;;;;;;;3.80;93.31;100386.25;5223094;28;20025;-81
2021/01/27 09:47:58;;;;;;;10.98;6.80;;;;;;;4.06;93.42;100386.78;5223455;28;20456;-79
2021/01/27 09:50:29;;;;;;;11.50;6.38;;;;;;;4.29;92.59;100392.53;5224749;28;20045;-80
2021/01/27 09:53:01;;;;;;;8.50;5.70;;;;;;;4.28;91.08;100387.38;5223632;28;20067;-82
2021/01/27 09:55:32;;;;;;;10.10;5.68;;;;;;;4.24;90.69;100386.56;5221958;28;20040;-82
2021/01/27 09:58:05;;;;;;;9.70;6.03;;;;;;;4.21;91.29;100384.03;5230214;28;20094;-79
2021/01/27 10:00:37;;;;;;;8.63;5.53;;;;;;;4.39;90.50;100391.53;5224499;28;20032;-79
2021/01/27 10:03:16;;;;;;;10.60;5.88;;;;;;;4.61;89.73;100387.75;5223889;28;20023;-81
2021/01/27 10:05:46;;;;;;;8.30;5.03;;;;;;;4.59;86.99;100389.50;5223169;28;20029;-83
2021/01/27 10:08:28;;;;;;;8.93;5.30;;;;;;;4.84;88.91;100390.00;5222158;28;20054;-81
2021/01/27 10:11:06;;;;;;;8.05;4.90;;;;;;;4.88;88.21;100392.53;5223862;28;20070;-79
2021/01/27 10:13:39;;;;;;;8.25;5.00;;;;;;;5.07;88.01;100393.94;5224174;28;20647;-80
2021/01/27 10:16:14;;;;;;;8.13;4.85;;;;;;;5.16;88.02;100386.00;5217370;28;20646;-81
2021/01/27 10:18:45;;;;;;;9.65;5.10;;;;;;;5.31;87.54;100380.56;5224042;28;20387;-79
2021/01/27 10:21:16;;;;;;;9.23;4.78;;;;;;;5.27;86.86;100378.91;5224431;28;20037;-80
2021/01/27 10:23:48;;;;;;;6.68;4.80;;;;;;;5.43;87.05;100380.34;5221463;28;20040;-80
2021/01/27 10:26:31;;;;;;;7.43;4.45;;;;;;;5.43;86.10;100375.16;5218169;28;20028;-81
2021/01/27 10:29:20;;;;;;;6.40;4.57;;;;;;;5.21;85.47;100376.44;5223932;28;20031;-79
2021/01/27 10:31:53;;;;;;;8.07;4.55;;;;;;;5.31;85.45;100364.19;5224519;28;20479;-79
2021/01/27 10:34:39;;;;;;;7.50;4.50;;;;;;;5.34;87.16;100361.53;5226279;28;20124;-79
2021/01/27 10:37:34;;;;;;;7.50;4.65;;;;;;;5.22;87.40;100360.00;5221721;28;20024;-80
2021/01/27 10:40:22;;;;;;;13.20;5.25;;;;;;;5.15;88.25;100355.78;5222391;28;20039;-80
2021/01/27 10:42:55;;;;;;;5.70;3.50;;;;;;;5.29;85.51;100359.00;5223403;28;20112;-80
2021/01/27 10:45:34;;;;;;;7.00;3.38;;;;;;;5.24;83.35;100345.28;5223786;28;20704;-80
2021/01/27 10:48:10;;;;;;;6.38;3.28;;;;;;;5.25;83.33;100352.19;5223644;28;20120;-80
2021/01/27 10:50:45;;;;;;;6.75;3.33;;;;;;;5.29;85.12;100358.16;5226137;28;20021;-80
2021/01/27 10:53:18;;;;;;;7.30;3.17;;;;;;;5.13;82.19;100364.50;5222317;28;20025;-80
2021/01/27 10:55:55;;;;;;;6.95;3.20;;;;;;;5.22;82.52;100367.78;5220731;28;20491;-81
2021/01/27 10:58:26;;;;;;;7.50;3.13;;;;;;;5.49;82.08;100362.09;5222773;28;20131;-79
2021/01/27 11:00:56;;;;;;;5.07;2.60;;;;;;;5.26;80.60;100361.66;5223346;28;20088;-79
2021/01/27 11:03:26;;;;;;;5.32;2.30;;;;;;;5.16;81.30;100346.31;5222696;28;20021;-82
2021/01/27 11:05:57;;;;;;;6.22;2.55;;;;;;;5.03;81.43;100353.44;5226546;28;20021;-80
2021/01/27 11:08:31;;;;;;;5.03;2.33;;;;;;;5.13;82.84;100352.38;5221885;28;20029;-83
2021/01/27 11:11:04;;;;;;;5.97;2.50;;;;;;;5.43;82.12;100338.88;5223183;28;20025;-79
2021/01/27 11:13:35;;;;;;;4.90;2.63;;;;;;;5.36;80.51;100333.84;5230479;28;20486;-82
2021/01/27 11:16:07;;;;;;;3.80;2.30;;;;;;;5.22;80.75;100325.47;5226947;28;20033;-82
2021/01/27 11:18:38;;;;;;;4.50;2.40;;;;;;;5.22;80.30;100330.66;5224473;28;20063;-81
2021/01/27 11:21:09;;;;;;;3.92;2.30;;;;;;;5.27;81.04;100315.88;5225246;28;20028;-82
2021/01/27 11:23:39;;;;;;;6.80;2.70;;;;;;;5.05;81.63;100333.56;5227350;28;20025;-82
2021/01/27 11:26:09;;;;;;;4.88;2.50;;;;;;;5.04;80.85;100334.44;5224689;28;20056;-82
2021/01/27 11:28:39;;;;;;;6.57;3.10;;;;;;;4.71;82.07;100331.53;5223863;28;20036;-82
2021/01/27 11:31:10;;;;;;;5.10;2.45;;;;;;;4.51;82.20;100323.22;5223996;28;20033;-81
2021/01/27 11:33:40;;;;;;;5.13;2.50;;;;;;;4.46;82.87;100314.69;5227649;28;20024;-82
2021/01/27 11:36:10;;;;;;;5.60;1.98;;;;;;;4.48;82.83;100318.94;5223401;28;20037;-82
2021/01/27 11:38:41;;;;;;;5.85;2.60;;;;;;;4.58;82.64;100312.75;5227397;28;20088;-82
2021/01/27 11:41:12;;;;;;;6.05;2.45;;;;;;;4.55;83.27;100310.22;5231216;28;20450;-83
2021/01/27 11:43:43;;;;;;;4.97;2.33;;;;;;;4.49;83.42;100314.66;5232045;28;20025;-82
2021/01/27 11:46:18;;;;;;;4.80;2.38;;;;;;;4.63;83.34;100313.53;5230081;28;20017;-82
2021/01/27 11:48:48;;;;;;;6.43;2.35;;;;;;;4.55;83.34;100305.06;5231335;28;20313;-82
2021/01/27 11:51:18;;;;;;;6.07;2.45;;;;;;;4.49;83.19;100289.59;5231796;28;20135;-82
2021/01/27 11:53:48;;;;;;;7.45;2.50;;;;;;;4.60;83.59;100294.63;5230563;28;20039;-82
2021/01/27 11:56:19;;;;;;;5.70;2.60;;;;;;;4.68;84.17;100285.88;5231396;28;20029;-82
2021/01/27 11:58:49;;;;;;;5.57;2.75;;;;;;;4.55;83.54;100284.34;5230115;28;20462;-82
2021/01/27 12:01:19;;;;;;;5.85;3.00;;;;;;;4.78;84.46;100290.00;5230010;28;20029;-82
2021/01/27 12:03:50;;;;;;;4.60;2.53;;;;;;;4.75;84.45;100277.13;5225582;28;20029;-81
2021/01/27 12:06:20;;;;;;;4.25;2.75;;;;;;;4.54;83.55;100274.88;5224239;28;20029;-81
2021/01/27 12:08:50;;;;;;;5.00;2.75;;;;;;;4.64;84.20;100270.41;5224071;28;20025;-81